This is the latest recevied weather packets stored in our database for station/object DG8SBT-10. If no packets are shown the sender has not sent any weather packets the latest 10 day(s).
| Time | Temp. | Humidity | Pressure | Rain* | Wind** | Luminosity | Snow |
|---|---|---|---|---|---|---|---|
| 1788407358 | 20° C | 52% | 1024.2 hPa | - | - | - | - |
| 1788406458 | 20° C | 52% | 1024.2 hPa | - | - | - | - |
| 1788405558 | 21.11° C | 49% | 1024.4 hPa | - | - | - | - |
| 1788404658 | 21.11° C | 49% | 1024.2 hPa | - | - | - | - |
| 1788403758 | 22.22° C | 47% | 1024.1 hPa | - | - | - | - |
| 1788402857 | 20.56° C | 51% | 1024.2 hPa | - | - | - | - |
| 1788401957 | 20.56° C | 51% | 1024.3 hPa | - | - | - | - |
| 1788380354 | 24.44° C | 44% | 1023.3 hPa | - | - | - | - |
| 1788379455 | 24.44° C | 44% | 1023.2 hPa | - | - | - | - |
| 1788378554 | 23.89° C | 44% | 1023.1 hPa | - | - | - | - |
| 1788377654 | 25° C | 42% | 1023.1 hPa | - | - | - | - |
| 1788376754 | 25° C | 42% | 1022.9 hPa | - | - | - | - |
| 1788375854 | 25° C | 43% | 1022.8 hPa | - | - | - | - |
| 1788374053 | 24.44° C | 42% | 1022.5 hPa | - | - | - | - |
| 1788373153 | 25.56° C | 40% | 1022.3 hPa | - | - | - | - |
| 1788370453 | 27.78° C | 37% | 1021.9 hPa | - | - | - | - |
| 1788369554 | 27.78° C | 36% | 1021.7 hPa | - | - | - | - |
| 1788367753 | 28.33° C | 36% | 1021.6 hPa | - | - | - | - |
| 1788365952 | 28.33° C | 35% | 1021.7 hPa | - | - | - | - |
| 1788365053 | 28.33° C | 35% | 1021.7 hPa | - | - | - | - |
| 1788364153 | 28.33° C | 36% | 1021.7 hPa | - | - | - | - |
| 1788362352 | 27.78° C | 37% | 1021.7 hPa | - | - | - | - |
| 1788361453 | 27.78° C | 37% | 1021.8 hPa | - | - | - | - |
| 1788359652 | 26.67° C | 39% | 1021.8 hPa | - | - | - | - |
| 1788358752 | 26.67° C | 39% | 1021.8 hPa | - | - | - | - |
* Rain since midnight (hover to see other rain measurements)
** Current wind speed in m/s (hover to see current wind gust speed)